createdAt,value
2019-05-12T00:01:35.494Z,8.60
2019-05-12T00:04:08.090Z,8.60
2019-05-12T00:06:38.732Z,8.60
2019-05-12T00:09:14.012Z,8.60
2019-05-12T00:11:48.290Z,8.60
2019-05-12T00:14:23.565Z,8.60
2019-05-12T00:16:54.805Z,8.70
2019-05-12T00:19:24.106Z,8.70
2019-05-12T00:21:55.348Z,8.80
2019-05-12T00:24:27.825Z,8.70
2019-05-12T00:27:00.805Z,8.80
2019-05-12T00:29:30.180Z,8.60
2019-05-12T00:32:05.001Z,8.70
2019-05-12T00:34:35.300Z,8.70
2019-05-12T00:37:08.311Z,8.70
2019-05-12T00:39:42.029Z,8.70
2019-05-12T00:42:13.868Z,8.60
2019-05-12T00:44:43.286Z,8.70
2019-05-12T00:47:12.728Z,8.70
2019-05-12T00:49:42.147Z,8.70
2019-05-12T00:52:11.544Z,8.70
2019-05-12T00:54:40.977Z,8.70
2019-05-12T00:57:11.102Z,8.80
2019-05-12T00:59:44.770Z,8.80
2019-05-12T01:02:18.210Z,8.80
2019-05-12T01:04:49.287Z,8.80
2019-05-12T01:07:19.580Z,8.80
2019-05-12T01:09:49.340Z,8.80
2019-05-12T01:12:19.463Z,8.90
2019-05-12T01:14:54.156Z,8.90
2019-05-12T01:17:28.089Z,8.90
2019-05-12T01:20:00.615Z,8.80
2019-05-12T01:22:31.034Z,8.80
2019-05-12T01:25:01.311Z,8.80
2019-05-12T01:27:34.075Z,8.90
2019-05-12T01:30:05.344Z,8.80
2019-05-12T01:32:40.161Z,8.80
2019-05-12T01:35:12.769Z,8.80
2019-05-12T01:37:42.994Z,8.70
2019-05-12T01:40:12.597Z,8.80
2019-05-12T01:42:41.977Z,8.80
2019-05-12T01:45:12.033Z,8.80
2019-05-12T01:47:43.304Z,8.80
2019-05-12T01:50:13.048Z,8.80
2019-05-12T01:52:42.429Z,8.70
2019-05-12T01:55:18.566Z,8.70
2019-05-12T01:57:48.617Z,8.80
2019-05-12T02:00:22.457Z,8.70
2019-05-12T02:02:59.551Z,8.80
2019-05-12T02:05:29.012Z,8.70
2019-05-12T02:08:02.003Z,8.60
2019-05-12T02:10:32.879Z,8.70
2019-05-12T02:13:02.867Z,8.60
2019-05-12T02:15:32.502Z,8.50
2019-05-12T02:18:03.547Z,8.50
2019-05-12T02:20:38.902Z,8.40
2019-05-12T02:23:09.209Z,8.40
2019-05-12T02:25:39.145Z,8.40
2019-05-12T02:28:12.332Z,8.40
2019-05-12T02:30:42.887Z,8.40
2019-05-12T02:33:15.666Z,8.30
2019-05-12T02:35:44.476Z,8.20
2019-05-12T02:38:20.424Z,8.20
2019-05-12T02:40:51.555Z,8.20
2019-05-12T02:43:24.434Z,8.20
2019-05-12T02:45:56.480Z,8.20
2019-05-12T02:48:30.945Z,8.30
2019-05-12T02:51:05.205Z,8.20
2019-05-12T02:53:35.168Z,8.20
2019-05-12T02:56:05.346Z,8.20
2019-05-12T02:58:38.212Z,8.30
2019-05-12T03:01:10.969Z,8.30
2019-05-12T03:03:44.034Z,8.30
2019-05-12T03:06:15.122Z,8.30
2019-05-12T03:08:45.140Z,8.30
2019-05-12T03:11:15.327Z,8.20
2019-05-12T03:13:45.003Z,8.30
2019-05-12T03:16:21.437Z,8.20
2019-05-12T03:18:54.991Z,8.20
2019-05-12T03:21:24.486Z,8.20
2019-05-12T03:23:55.382Z,8.20
2019-05-12T03:26:25.925Z,8.20
2019-05-12T03:28:56.756Z,8.30
2019-05-12T03:31:31.629Z,8.20
2019-05-12T03:34:00.204Z,8.30
2019-05-12T03:36:34.707Z,8.30
2019-05-12T03:39:04.224Z,8.30
2019-05-12T03:41:35.546Z,8.30
2019-05-12T03:44:07.325Z,8.40
2019-05-12T03:46:45.353Z,8.40
2019-05-12T03:49:15.497Z,8.40
2019-05-12T03:51:54.167Z,8.40
2019-05-12T03:54:24.392Z,8.30
2019-05-12T03:56:55.719Z,8.30
2019-05-12T03:59:25.671Z,8.30
2019-05-12T04:01:55.701Z,8.30
2019-05-12T04:04:29.312Z,8.30
2019-05-12T04:07:05.496Z,8.30
2019-05-12T04:09:35.042Z,8.20
2019-05-12T04:12:05.404Z,8.20
2019-05-12T04:14:34.920Z,8.20
2019-05-12T04:17:05.012Z,8.10
2019-05-12T04:19:36.525Z,8.00
2019-05-12T04:22:05.905Z,8.00
2019-05-12T04:24:35.968Z,8.00
2019-05-12T04:27:05.762Z,8.00
2019-05-12T04:29:35.160Z,7.90
2019-05-12T04:32:05.225Z,7.90
2019-05-12T04:34:36.335Z,7.90
2019-05-12T04:37:14.754Z,7.90
2019-05-12T04:39:45.717Z,7.80
2019-05-12T04:42:16.274Z,7.80
2019-05-12T04:44:45.675Z,7.70
2019-05-12T04:47:16.411Z,7.80
2019-05-12T04:49:45.788Z,7.70
2019-05-12T04:52:19.972Z,7.70
2019-05-12T04:54:57.165Z,7.70
2019-05-12T04:57:28.075Z,7.80
2019-05-12T04:59:57.385Z,7.70
2019-05-12T05:02:26.809Z,7.70
2019-05-12T05:04:56.343Z,7.70
2019-05-12T05:07:26.005Z,7.70
2019-05-12T05:09:55.478Z,7.80
2019-05-12T05:12:24.854Z,7.80
2019-05-12T05:15:01.824Z,7.70
2019-05-12T05:17:31.308Z,7.60
2019-05-12T05:20:00.703Z,7.60
2019-05-12T05:22:33.324Z,7.70
2019-05-12T05:25:04.253Z,7.70
2019-05-12T05:27:34.157Z,7.70
2019-05-12T05:30:04.190Z,7.70
2019-05-12T05:32:34.104Z,7.70
2019-05-12T05:35:07.371Z,7.70
2019-05-12T05:37:39.575Z,7.60
2019-05-12T05:40:08.675Z,7.60
2019-05-12T05:42:44.190Z,7.60
2019-05-12T05:45:19.604Z,7.60
2019-05-12T05:47:45.053Z,7.60
2019-05-12T05:50:24.956Z,7.60
2019-05-12T05:52:54.248Z,7.50
2019-05-12T05:55:24.795Z,7.50
2019-05-12T05:57:54.212Z,7.40
2019-05-12T06:00:26.196Z,7.40
2019-05-12T06:02:55.494Z,7.40
2019-05-12T06:05:30.774Z,7.40
2019-05-12T06:07:57.984Z,7.40
2019-05-12T06:10:35.340Z,7.40
2019-05-12T06:12:58.436Z,7.50
2019-05-12T06:15:29.777Z,7.60
2019-05-12T06:17:59.269Z,7.60
2019-05-12T06:20:28.755Z,7.60
2019-05-12T06:22:58.145Z,7.60
2019-05-12T06:25:44.562Z,7.50
2019-05-12T06:28:01.460Z,7.50
2019-05-12T06:30:30.247Z,7.50
2019-05-12T06:32:59.650Z,7.40
2019-05-12T06:35:30.987Z,7.30
2019-05-12T06:38:01.915Z,7.30
2019-05-12T06:40:40.372Z,7.30
2019-05-12T06:43:04.901Z,7.50
2019-05-12T06:45:41.868Z,7.60
2019-05-12T06:48:07.044Z,7.60
2019-05-12T06:50:38.871Z,7.50
2019-05-12T06:53:08.232Z,7.40
2019-05-12T06:55:39.419Z,7.50
2019-05-12T06:58:08.892Z,7.40
2019-05-12T07:00:39.909Z,7.40
2019-05-12T07:03:09.685Z,7.30
2019-05-12T07:05:42.477Z,7.40
2019-05-12T07:08:10.973Z,7.50
2019-05-12T07:10:44.284Z,7.40
2019-05-12T07:13:14.820Z,7.30
2019-05-12T07:15:44.481Z,7.40
2019-05-12T07:18:17.820Z,7.30
2019-05-12T07:20:47.464Z,7.50
2019-05-12T07:23:19.765Z,7.50
2019-05-12T07:25:48.649Z,7.50
2019-05-12T07:28:19.314Z,7.50
2019-05-12T07:30:49.484Z,7.50
2019-05-12T07:33:19.532Z,7.60
2019-05-12T07:36:00.986Z,7.70
2019-05-12T07:38:26.471Z,7.70
2019-05-12T07:41:00.631Z,7.70
2019-05-12T07:43:30.180Z,7.80
2019-05-12T07:46:07.151Z,7.80
2019-05-12T07:48:33.427Z,7.90
2019-05-12T07:51:04.208Z,7.80
2019-05-12T07:53:34.297Z,7.60
2019-05-12T07:56:04.306Z,7.70
2019-05-12T07:58:34.060Z,7.50
2019-05-12T08:01:07.739Z,7.50
2019-05-12T08:03:37.329Z,7.50
2019-05-12T08:06:08.266Z,7.50
2019-05-12T08:08:44.154Z,7.50
2019-05-12T08:11:09.861Z,7.60
2019-05-12T08:13:40.913Z,7.70
2019-05-12T08:16:10.428Z,7.70
2019-05-12T08:18:41.160Z,7.60
2019-05-12T08:21:10.521Z,7.60
2019-05-12T08:23:40.367Z,7.50
2019-05-12T08:26:16.265Z,7.50
2019-05-12T08:28:44.200Z,7.50
2019-05-12T08:31:14.142Z,7.60
2019-05-12T08:33:43.809Z,7.60
2019-05-12T08:36:16.351Z,7.70
2019-05-12T08:38:46.127Z,7.70
2019-05-12T08:41:16.368Z,7.70
2019-05-12T08:43:53.135Z,7.80
2019-05-12T08:46:20.050Z,7.90
2019-05-12T08:48:51.504Z,7.90
2019-05-12T08:51:25.027Z,7.90
2019-05-12T08:54:02.293Z,7.80
2019-05-12T08:56:33.109Z,7.90
2019-05-12T08:59:04.329Z,7.90
2019-05-12T09:01:35.427Z,7.90
2019-05-12T09:04:13.131Z,8.00
2019-05-12T09:06:43.485Z,8.00
2019-05-12T09:09:15.796Z,8.10
2019-05-12T09:11:54.056Z,8.10
2019-05-12T09:14:25.169Z,8.00
2019-05-12T09:17:02.766Z,7.90
2019-05-12T09:19:33.219Z,7.80
2019-05-12T09:22:07.201Z,7.80
2019-05-12T09:24:33.889Z,7.80
2019-05-12T09:27:08.822Z,7.80
2019-05-12T09:29:39.603Z,7.80
2019-05-12T09:32:14.576Z,7.80
2019-05-12T09:34:52.607Z,7.90
2019-05-12T09:37:20.612Z,7.90
2019-05-12T09:39:53.821Z,7.80
2019-05-12T09:42:30.013Z,7.80
2019-05-12T09:44:59.960Z,7.80
2019-05-12T09:47:31.199Z,7.80
2019-05-12T09:50:00.536Z,7.70
2019-05-12T09:52:32.960Z,7.70
2019-05-12T09:55:04.254Z,7.60
2019-05-12T09:57:40.543Z,7.60
2019-05-12T10:00:06.969Z,7.50
2019-05-12T10:02:37.480Z,7.60
2019-05-12T10:05:08.897Z,7.50
2019-05-12T10:07:44.371Z,7.50
2019-05-12T10:10:14.157Z,7.40
2019-05-12T10:12:50.302Z,7.40
2019-05-12T10:15:18.580Z,7.40
2019-05-12T10:17:49.575Z,7.40
2019-05-12T10:20:21.564Z,7.50
2019-05-12T10:22:50.037Z,7.40
2019-05-12T10:25:23.204Z,7.60
2019-05-12T10:27:53.145Z,7.60
2019-05-12T10:30:23.450Z,7.70
2019-05-12T10:32:53.178Z,7.70
2019-05-12T10:35:26.261Z,7.70
2019-05-12T10:37:53.807Z,7.70
2019-05-12T10:40:23.646Z,7.70
2019-05-12T10:42:54.227Z,7.80
2019-05-12T10:45:25.921Z,7.90
2019-05-12T10:47:55.823Z,7.90
2019-05-12T10:50:27.748Z,8.00
2019-05-12T10:52:57.521Z,7.80
2019-05-12T10:55:27.029Z,7.70
2019-05-12T10:58:01.477Z,7.60
2019-05-12T11:00:30.963Z,7.60
2019-05-12T11:03:01.518Z,7.60
2019-05-12T11:05:33.643Z,7.70
2019-05-12T11:08:06.386Z,7.70
2019-05-12T11:10:35.318Z,7.50
2019-05-12T11:13:08.438Z,7.60
2019-05-12T11:15:39.606Z,7.60
2019-05-12T11:18:14.279Z,7.80
2019-05-12T11:20:47.653Z,7.70
2019-05-12T11:23:18.192Z,7.60
2019-05-12T11:25:49.476Z,7.80
2019-05-12T11:28:20.384Z,7.70
2019-05-12T11:30:53.275Z,7.70
2019-05-12T11:33:25.134Z,7.70
2019-05-12T11:35:57.817Z,7.70
2019-05-12T11:38:27.122Z,7.70
2019-05-12T11:40:57.984Z,7.80
2019-05-12T11:43:29.867Z,8.00
2019-05-12T11:46:00.274Z,8.10
2019-05-12T11:48:30.321Z,8.30
2019-05-12T11:51:00.736Z,8.20
2019-05-12T11:53:32.865Z,8.30
2019-05-12T11:56:07.475Z,8.40
2019-05-12T11:58:34.196Z,8.70
2019-05-12T12:01:08.250Z,8.80
2019-05-12T12:03:37.055Z,8.70
2019-05-12T12:06:06.816Z,8.80
2019-05-12T12:08:37.418Z,9.00
2019-05-12T12:11:10.438Z,9.20
2019-05-12T12:13:40.225Z,9.30
2019-05-12T12:16:11.408Z,9.40
2019-05-12T12:18:46.703Z,9.60
2019-05-12T12:21:14.213Z,9.60
2019-05-12T12:23:48.738Z,9.60
2019-05-12T12:26:30.310Z,9.60
2019-05-12T12:28:59.185Z,9.50
2019-05-12T12:31:35.758Z,9.30
2019-05-12T12:34:02.268Z,9.20
2019-05-12T12:36:35.609Z,9.30
2019-05-12T12:39:06.601Z,9.30
2019-05-12T12:41:35.989Z,9.10
2019-05-12T12:44:05.730Z,9.10
2019-05-12T12:46:35.237Z,9.10
2019-05-12T12:49:08.569Z,9.00
2019-05-12T12:51:37.097Z,8.80
2019-05-12T12:54:06.495Z,8.90
2019-05-12T12:56:35.962Z,9.00
2019-05-12T12:59:10.168Z,9.00
2019-05-12T13:01:39.369Z,9.00
2019-05-12T13:04:08.846Z,9.00
2019-05-12T13:06:39.085Z,9.10
2019-05-12T13:09:21.991Z,9.20
2019-05-12T13:11:41.507Z,9.40
2019-05-12T13:14:13.339Z,9.50
2019-05-12T13:16:43.711Z,9.60
2019-05-12T13:19:17.078Z,9.60
2019-05-12T13:21:46.576Z,9.60
2019-05-12T13:24:17.372Z,9.70
2019-05-12T13:26:46.857Z,9.80
2019-05-12T13:29:19.008Z,9.70
2019-05-12T13:31:48.577Z,9.70
2019-05-12T13:34:18.806Z,9.80
2019-05-12T13:36:49.389Z,9.80
2019-05-12T13:39:18.908Z,9.70
2019-05-12T13:41:50.279Z,9.70
2019-05-12T13:44:20.335Z,9.70
2019-05-12T13:46:56.997Z,9.70
2019-05-12T13:49:21.622Z,9.90
2019-05-12T13:51:53.717Z,10.00
2019-05-12T13:54:26.134Z,9.90
2019-05-12T13:56:54.361Z,10.00
2019-05-12T13:59:25.540Z,10.10
2019-05-12T14:01:55.185Z,10.10
2019-05-12T14:04:27.681Z,10.10
2019-05-12T14:06:56.348Z,10.10
2019-05-12T14:09:26.139Z,10.10
2019-05-12T14:11:55.537Z,10.40
2019-05-12T14:14:25.001Z,10.50
2019-05-12T14:16:59.439Z,10.60
2019-05-12T14:19:30.386Z,10.70
2019-05-12T14:21:59.713Z,10.60
2019-05-12T14:24:33.267Z,10.60
2019-05-12T14:27:00.842Z,10.60
2019-05-12T14:29:33.419Z,10.60
2019-05-12T14:32:05.273Z,10.60
2019-05-12T14:34:42.883Z,10.50
2019-05-12T14:37:14.028Z,10.60
2019-05-12T14:39:50.422Z,10.50
2019-05-12T14:42:20.121Z,10.40
2019-05-12T14:44:49.883Z,10.30
2019-05-12T14:47:27.917Z,10.30
2019-05-12T14:49:54.251Z,10.10
2019-05-12T14:52:27.278Z,9.80
2019-05-12T14:54:58.125Z,9.70
2019-05-12T14:57:29.310Z,9.70
2019-05-12T14:59:59.513Z,9.60
2019-05-12T15:02:29.596Z,9.70
2019-05-12T15:05:05.661Z,9.70
2019-05-12T15:07:33.703Z,9.70
2019-05-12T15:10:08.446Z,9.70
2019-05-12T15:12:34.152Z,9.70
2019-05-12T15:15:09.179Z,9.60
2019-05-12T15:17:36.413Z,9.60
2019-05-12T15:20:10.560Z,9.50
2019-05-12T15:22:50.928Z,9.60
2019-05-12T15:25:14.599Z,9.60
2019-05-12T15:27:48.209Z,9.60
2019-05-12T15:30:23.308Z,9.60
2019-05-12T15:32:50.797Z,9.60
2019-05-12T15:35:24.105Z,9.60
2019-05-12T15:37:56.870Z,9.60
2019-05-12T15:40:29.530Z,9.70
2019-05-12T15:43:00.441Z,9.70
2019-05-12T15:45:34.322Z,9.70
2019-05-12T15:48:04.296Z,9.80
2019-05-12T15:50:34.291Z,9.90
2019-05-12T15:53:04.313Z,9.90
2019-05-12T15:55:35.469Z,10.00
2019-05-12T15:58:09.009Z,10.10
2019-05-12T16:00:38.728Z,10.10
2019-05-12T16:03:08.404Z,10.10
2019-05-12T16:05:37.796Z,10.30
2019-05-12T16:08:07.660Z,10.50
2019-05-12T16:10:37.436Z,10.70
2019-05-12T16:13:06.836Z,10.90
2019-05-12T16:15:36.583Z,11.00
2019-05-12T16:18:09.844Z,11.10
2019-05-12T16:20:37.778Z,11.20
2019-05-12T16:23:07.600Z,11.30
2019-05-12T16:25:38.688Z,11.40
2019-05-12T16:28:15.563Z,11.40
2019-05-12T16:30:40.408Z,11.40
2019-05-12T16:33:20.457Z,11.50
2019-05-12T16:35:50.561Z,11.60
2019-05-12T16:38:20.487Z,11.60
2019-05-12T16:40:50.235Z,11.60
2019-05-12T16:43:19.800Z,11.70
2019-05-12T16:45:54.461Z,11.80
2019-05-12T16:48:30.429Z,11.70
2019-05-12T16:50:57.646Z,11.70
2019-05-12T16:53:31.290Z,11.60
2019-05-12T16:56:05.834Z,11.50
2019-05-12T16:58:35.521Z,11.20
2019-05-12T17:01:07.620Z,11.10
2019-05-12T17:03:38.813Z,11.00
2019-05-12T17:06:08.833Z,10.90
2019-05-12T17:08:44.829Z,10.90
2019-05-12T17:11:26.466Z,10.80
2019-05-12T17:13:55.608Z,10.70
2019-05-12T17:16:18.389Z,10.60
2019-05-12T17:18:53.342Z,10.60
2019-05-12T17:21:24.645Z,10.50
2019-05-12T17:23:55.286Z,10.50
2019-05-12T17:26:27.032Z,10.40
2019-05-12T17:28:57.485Z,10.30
2019-05-12T17:31:27.586Z,10.20
2019-05-12T17:34:00.203Z,10.20
2019-05-12T17:36:34.515Z,10.10
2019-05-12T17:39:06.622Z,10.10
2019-05-12T17:41:42.628Z,10.00
2019-05-12T17:44:13.409Z,9.90
2019-05-12T17:46:44.176Z,9.80
2019-05-12T17:49:15.773Z,9.70
2019-05-12T17:51:46.594Z,9.70
2019-05-12T17:54:21.645Z,9.70
2019-05-12T17:56:48.730Z,9.60
2019-05-12T17:59:27.573Z,9.50
2019-05-12T18:01:53.737Z,9.40
2019-05-12T18:04:26.486Z,9.50
2019-05-12T18:06:55.979Z,9.50
2019-05-12T18:09:25.361Z,9.40
2019-05-12T18:11:56.389Z,9.30
2019-05-12T18:14:28.630Z,9.20
2019-05-12T18:17:08.168Z,9.20
2019-05-12T18:19:33.749Z,9.20
2019-05-12T18:22:09.124Z,9.20
2019-05-12T18:24:40.878Z,9.10
2019-05-12T18:27:09.556Z,9.10
2019-05-12T18:29:40.713Z,8.90
2019-05-12T18:32:13.623Z,8.90
2019-05-12T18:34:44.582Z,8.70
2019-05-12T18:37:16.735Z,8.80
2019-05-12T18:39:46.249Z,8.80
2019-05-12T18:42:19.452Z,8.80
2019-05-12T18:44:48.920Z,8.80
2019-05-12T18:47:23.439Z,8.70
2019-05-12T18:49:53.817Z,8.80
2019-05-12T18:52:29.160Z,8.70
2019-05-12T18:54:57.328Z,8.70
2019-05-12T18:57:30.569Z,8.80
2019-05-12T19:00:04.208Z,8.70
2019-05-12T19:02:33.453Z,8.80
2019-05-12T19:05:04.450Z,8.80
2019-05-12T19:07:39.732Z,8.80
2019-05-12T19:10:07.703Z,8.80
2019-05-12T19:12:37.120Z,8.80
2019-05-12T19:15:10.263Z,8.80
2019-05-12T19:17:39.446Z,8.80
2019-05-12T19:20:13.408Z,8.70
2019-05-12T19:22:48.216Z,8.70
2019-05-12T19:25:15.312Z,8.80
2019-05-12T19:27:46.996Z,8.70
2019-05-12T19:30:19.217Z,8.80
2019-05-12T19:32:51.814Z,8.80
2019-05-12T19:35:23.927Z,8.80
2019-05-12T19:37:54.817Z,8.80
2019-05-12T19:40:24.462Z,8.80
2019-05-12T19:43:01.966Z,8.80
2019-05-12T19:45:25.163Z,8.80
2019-05-12T19:47:57.554Z,8.80
2019-05-12T19:50:28.255Z,8.80
2019-05-12T19:52:58.725Z,8.80
2019-05-12T19:55:30.599Z,8.80
2019-05-12T19:58:10.783Z,8.90
2019-05-12T20:00:34.609Z,8.90
2019-05-12T20:03:08.559Z,8.80
2019-05-12T20:05:37.080Z,8.80
2019-05-12T20:08:08.378Z,8.70
2019-05-12T20:10:44.856Z,8.70
2019-05-12T20:13:13.698Z,8.70
2019-05-12T20:15:43.835Z,8.70
2019-05-12T20:18:14.817Z,8.70
2019-05-12T20:20:47.013Z,8.80
2019-05-12T20:23:19.604Z,8.70
2019-05-12T20:25:56.022Z,8.80
2019-05-12T20:28:26.615Z,8.70
2019-05-12T20:31:00.926Z,8.80
2019-05-12T20:33:29.727Z,8.80
2019-05-12T20:36:00.555Z,8.70
2019-05-12T20:38:34.437Z,8.70
2019-05-12T20:41:04.838Z,8.70
2019-05-12T20:43:41.301Z,8.70
2019-05-12T20:46:15.829Z,8.70
2019-05-12T20:48:41.037Z,8.70
2019-05-12T20:51:15.461Z,8.70
2019-05-12T20:53:43.628Z,8.70
2019-05-12T20:56:20.012Z,8.60
2019-05-12T20:58:46.498Z,8.70
2019-05-12T21:01:20.234Z,8.70
2019-05-12T21:03:51.006Z,8.60
2019-05-12T21:06:23.620Z,8.50
2019-05-12T21:08:54.293Z,8.50
2019-05-12T21:11:24.973Z,8.60
2019-05-12T21:14:01.055Z,8.50
2019-05-12T21:16:34.313Z,8.50
2019-05-12T21:19:07.529Z,8.40
2019-05-12T21:21:34.070Z,8.40
2019-05-12T21:24:05.033Z,8.40
2019-05-12T21:26:37.935Z,8.40
2019-05-12T21:29:06.376Z,8.40
2019-05-12T21:31:35.786Z,8.30
2019-05-12T21:34:15.114Z,8.30
2019-05-12T21:36:39.668Z,8.20
2019-05-12T21:39:10.376Z,8.20
2019-05-12T21:41:51.910Z,8.30
2019-05-12T21:44:24.528Z,8.30
2019-05-12T21:47:03.771Z,8.20
2019-05-12T21:49:26.527Z,8.30
2019-05-12T21:52:02.869Z,8.20
2019-05-12T21:54:29.567Z,8.30
2019-05-12T21:56:59.014Z,8.30
2019-05-12T21:59:35.370Z,8.30
2019-05-12T22:02:00.540Z,8.30
2019-05-12T22:04:35.274Z,8.40
2019-05-12T22:07:03.975Z,8.40
2019-05-12T22:09:41.459Z,8.40
2019-05-12T22:12:05.638Z,8.40
2019-05-12T22:14:36.649Z,8.30
2019-05-12T22:17:07.752Z,8.30
2019-05-12T22:19:38.161Z,8.40
2019-05-12T22:22:19.532Z,8.40
2019-05-12T22:24:50.256Z,8.40
2019-05-12T22:27:22.869Z,8.40
2019-05-12T22:29:53.475Z,8.40
2019-05-12T22:32:25.417Z,8.40
2019-05-12T22:34:54.584Z,8.40
2019-05-12T22:37:24.048Z,8.40
2019-05-12T22:39:53.575Z,8.40
2019-05-12T22:42:24.571Z,8.40
2019-05-12T22:45:01.469Z,8.50
2019-05-12T22:47:25.628Z,8.50
2019-05-12T22:49:57.087Z,8.40
2019-05-12T22:52:28.105Z,8.40
2019-05-12T22:54:57.560Z,8.50
2019-05-12T22:57:29.171Z,8.40
2019-05-12T23:00:03.827Z,8.40
2019-05-12T23:02:33.778Z,8.30
2019-05-12T23:05:10.174Z,8.30
2019-05-12T23:07:36.053Z,8.30
2019-05-12T23:10:10.989Z,8.30
2019-05-12T23:12:38.466Z,8.30
2019-05-12T23:15:08.665Z,8.30
2019-05-12T23:17:39.028Z,8.20
2019-05-12T23:20:10.365Z,8.20
2019-05-12T23:22:41.109Z,8.20
2019-05-12T23:25:11.426Z,8.20
2019-05-12T23:27:44.199Z,8.20
2019-05-12T23:30:15.903Z,8.20
2019-05-12T23:32:51.397Z,8.20
2019-05-12T23:35:20.826Z,8.10
2019-05-12T23:37:50.314Z,8.00
2019-05-12T23:40:20.020Z,8.00
2019-05-12T23:42:49.468Z,8.00
2019-05-12T23:45:19.076Z,8.00
2019-05-12T23:47:48.588Z,8.10
2019-05-12T23:50:19.125Z,8.10
2019-05-12T23:52:57.655Z,8.10
2019-05-12T23:55:28.684Z,8.00
2019-05-12T23:58:00.582Z,8.10
